Time;durP1;ratioP1;P1;durP2;ratioP2;P2;SDS_P1;SDS_P2;PMS_P1;PMS_P2;Temp;Humidity;BMP_temperature;BMP_pressure;BME280_temperature;BME280_humidity;BME280_pressure;Samples;Min_cycle;Max_cycle;Signal;HPM_P1;HPM_P2
2023/04/20 00:00:11;;;;;;;7.20;6.22;;;;;;;3.18;100.00;92785.03;2057292;28;20038;-83
2023/04/20 00:01:12;;;;;;;9.45;6.22;;;;;;;3.10;100.00;92786.16;2050414;28;20034;-85
2023/04/20 00:02:14;;;;;;;9.63;5.97;;;;;;;3.19;100.00;92778.63;2056814;28;20054;-82
2023/04/20 00:03:19;;;;;;;7.55;6.03;;;;;;;3.24;100.00;92784.28;2049383;28;20062;-83
2023/04/20 00:04:21;;;;;;;7.30;6.35;;;;;;;3.28;100.00;92777.13;2057757;28;20027;-83
2023/04/20 00:05:25;;;;;;;7.88;6.07;;;;;;;3.42;100.00;92779.00;2060495;28;20356;-83
2023/04/20 00:06:28;;;;;;;7.38;5.80;;;;;;;3.23;100.00;92785.41;2049552;28;20059;-82
2023/04/20 00:07:30;;;;;;;8.63;6.18;;;;;;;2.99;100.00;92784.28;2041771;28;20033;-81
2023/04/20 00:08:31;;;;;;;7.95;5.85;;;;;;;3.05;100.00;92782.00;2049168;28;20098;-84
2023/04/20 00:09:32;;;;;;;6.70;6.00;;;;;;;2.95;100.00;92772.22;2048962;29;20031;-82
2023/04/20 00:10:37;;;;;;;7.43;6.72;;;;;;;3.01;100.00;92760.13;2041440;28;20118;-81
2023/04/20 00:11:39;;;;;;;7.13;6.43;;;;;;;3.08;100.00;92762.03;2042134;28;20078;-84
2023/04/20 00:12:41;;;;;;;9.38;6.75;;;;;;;3.22;100.00;92759.41;2041587;28;20023;-84
2023/04/20 00:13:42;;;;;;;8.75;6.25;;;;;;;3.11;100.00;92759.38;2041562;28;20028;-83
2023/04/20 00:14:43;;;;;;;7.53;6.18;;;;;;;3.13;100.00;92759.75;2065115;28;20073;-84
2023/04/20 00:15:44;;;;;;;6.90;5.95;;;;;;;3.10;100.00;92760.50;2072900;28;20026;-81
2023/04/20 00:16:47;;;;;;;7.90;6.57;;;;;;;3.12;100.00;92754.88;2049080;28;20023;-83
2023/04/20 00:17:48;;;;;;;6.80;6.13;;;;;;;3.19;100.00;92755.59;2049716;28;20427;-81
2023/04/20 00:18:50;;;;;;;8.80;6.20;;;;;;;3.02;100.00;92753.72;2049122;28;20035;-83
2023/04/20 00:19:51;;;;;;;10.80;6.30;;;;;;;3.09;100.00;92758.25;2041278;28;20087;-82
2023/04/20 00:20:52;;;;;;;8.40;6.80;;;;;;;3.14;100.00;92753.34;2049222;28;20031;-83
2023/04/20 00:21:53;;;;;;;9.38;6.68;;;;;;;3.20;100.00;92737.88;2066074;28;20073;-85
2023/04/20 00:22:54;;;;;;;9.02;7.38;;;;;;;3.11;100.00;92748.81;2056932;28;20031;-83
2023/04/20 00:23:56;;;;;;;7.50;6.35;;;;;;;3.14;100.00;92750.72;2049096;28;20428;-83
2023/04/20 00:24:57;;;;;;;9.02;6.68;;;;;;;3.13;100.00;92751.09;2049162;28;20034;-82
2023/04/20 00:25:59;;;;;;;8.02;6.05;;;;;;;3.13;100.00;92746.56;2049171;28;20078;-81
2023/04/20 00:27:00;;;;;;;7.70;6.25;;;;;;;3.08;100.00;92743.56;2057377;28;20023;-84
2023/04/20 00:28:01;;;;;;;7.78;6.97;;;;;;;3.09;100.00;92748.44;2048889;28;20034;-82
2023/04/20 00:29:02;;;;;;;9.02;7.07;;;;;;;3.07;100.00;92742.78;2050161;28;20027;-82
2023/04/20 00:30:04;;;;;;;8.60;6.75;;;;;;;2.88;100.00;92743.16;2056679;28;20019;-84
2023/04/20 00:31:06;;;;;;;10.15;6.65;;;;;;;2.93;100.00;92742.78;2057112;28;20080;-84
2023/04/20 00:32:16;;;;;;;7.32;6.63;;;;;;;2.89;100.00;92734.84;2073204;28;20026;-83
2023/04/20 00:33:17;;;;;;;8.48;6.80;;;;;;;2.87;100.00;92728.44;2065032;28;20498;-83
2023/04/20 00:34:18;;;;;;;8.00;6.93;;;;;;;2.86;100.00;92727.69;2048870;28;20062;-81
2023/04/20 00:35:19;;;;;;;8.02;6.53;;;;;;;2.87;100.00;92725.81;2056771;28;20521;-81
2023/04/20 00:36:20;;;;;;;9.73;6.95;;;;;;;2.86;100.00;92724.31;2065164;28;20026;-83
2023/04/20 00:37:24;;;;;;;7.38;6.68;;;;;;;2.88;100.00;92722.78;2073181;28;20379;-83
2023/04/20 00:38:26;;;;;;;8.05;5.85;;;;;;;2.81;100.00;92722.81;2064957;28;20030;-84
2023/04/20 00:39:27;;;;;;;11.77;7.32;;;;;;;2.78;100.00;92724.28;2047210;28;20031;-82
2023/04/20 00:40:28;;;;;;;7.97;6.75;;;;;;;2.77;100.00;92716.75;2040809;28;20027;-84
2023/04/20 00:41:29;;;;;;;8.13;6.78;;;;;;;2.82;100.00;92713.75;2041192;28;20412;-82
2023/04/20 00:42:30;;;;;;;7.53;6.68;;;;;;;2.80;100.00;92709.97;2056820;28;20052;-81
2023/04/20 00:43:31;;;;;;;7.28;6.45;;;;;;;2.82;100.00;92711.09;2053432;28;20030;-81
2023/04/20 00:44:32;;;;;;;8.63;6.97;;;;;;;2.75;100.00;92709.19;2056897;28;20019;-83
2023/04/20 00:45:35;;;;;;;9.90;7.10;;;;;;;2.66;100.00;92708.06;2056905;28;20138;-84
2023/04/20 00:46:36;;;;;;;7.93;7.10;;;;;;;2.64;100.00;92705.81;2056675;28;20026;-82
2023/04/20 00:47:37;;;;;;;10.43;6.85;;;;;;;2.54;100.00;92706.53;2048893;28;20023;-83
2023/04/20 00:48:39;;;;;;;8.10;6.80;;;;;;;2.55;100.00;92708.06;2057023;28;20034;-82
2023/04/20 00:49:41;;;;;;;8.48;7.20;;;;;;;2.57;100.00;92705.78;2062621;28;20070;-82
2023/04/20 00:50:45;;;;;;;8.23;7.30;;;;;;;2.51;100.00;92702.78;2056966;28;20074;-83
2023/04/20 00:51:46;;;;;;;7.90;7.10;;;;;;;2.52;100.00;92699.00;2042546;28;20083;-84
2023/04/20 00:52:47;;;;;;;8.02;6.95;;;;;;;2.51;100.00;92705.41;2055277;28;20491;-83
2023/04/20 00:53:48;;;;;;;9.52;6.47;;;;;;;2.51;100.00;92702.03;2061875;28;20506;-83
2023/04/20 00:54:49;;;;;;;7.90;6.78;;;;;;;2.46;100.00;92703.16;2063699;28;20034;-84
2023/04/20 00:55:50;;;;;;;8.45;7.03;;;;;;;2.41;100.00;92697.47;2056665;28;20587;-81
2023/04/20 00:56:53;;;;;;;8.93;6.90;;;;;;;2.42;100.00;92699.00;2048040;28;20507;-83
2023/04/20 00:57:54;;;;;;;10.57;6.43;;;;;;;2.45;100.00;92698.97;2061779;28;20088;-82
2023/04/20 00:58:55;;;;;;;9.00;6.65;;;;;;;2.38;100.00;92701.63;2060606;28;20876;-81
2023/04/20 00:59:56;;;;;;;11.00;6.60;;;;;;;2.38;100.00;92687.69;2040884;28;20027;-83
2023/04/20 01:00:58;;;;;;;9.70;6.72;;;;;;;2.37;100.00;92692.22;2049021;28;20027;-84
2023/04/20 01:01:59;;;;;;;7.78;6.95;;;;;;;2.35;100.00;92689.16;2056715;28;20026;-83
2023/04/20 01:03:00;;;;;;;11.70;6.90;;;;;;;2.34;100.00;92690.31;2053101;28;20031;-84
2023/04/20 01:04:02;;;;;;;7.60;6.75;;;;;;;2.37;100.00;92686.16;2048739;28;20476;-84
2023/04/20 01:05:03;;;;;;;9.82;7.28;;;;;;;2.34;100.00;92685.03;2048787;28;20023;-84
2023/04/20 01:06:05;;;;;;;7.80;7.00;;;;;;;2.25;100.00;92679.38;2048903;28;20027;-82
2023/04/20 01:07:06;;;;;;;10.13;7.05;;;;;;;2.29;100.00;92682.75;2057218;28;20019;-84
2023/04/20 01:08:07;;;;;;;11.15;7.05;;;;;;;2.26;100.00;92678.22;2063857;28;20367;-83
2023/04/20 01:09:09;;;;;;;8.38;6.95;;;;;;;2.30;100.00;92680.88;2048506;28;20431;-85
2023/04/20 01:10:10;;;;;;;10.15;7.30;;;;;;;2.24;100.00;92680.50;2048492;28;20106;-82
2023/04/20 01:11:11;;;;;;;8.82;6.97;;;;;;;2.29;100.00;92666.19;2048578;28;20027;-82
2023/04/20 01:12:13;;;;;;;7.45;6.70;;;;;;;2.28;100.00;92678.59;2048818;28;20027;-83
2023/04/20 01:13:14;;;;;;;7.97;6.57;;;;;;;2.25;100.00;92672.22;2048530;28;20050;-82
2023/04/20 01:14:15;;;;;;;7.03;6.38;;;;;;;2.25;100.00;92674.09;2056605;28;20400;-83
2023/04/20 01:15:16;;;;;;;10.65;6.78;;;;;;;2.29;100.00;92674.09;2068519;28;20474;-83
2023/04/20 01:16:17;;;;;;;8.85;6.97;;;;;;;2.28;100.00;92670.69;2060144;28;20026;-84
2023/04/20 01:17:19;;;;;;;9.38;7.13;;;;;;;2.31;100.00;92671.84;2048460;29;20043;-83
2023/04/20 01:18:22;;;;;;;7.60;6.82;;;;;;;2.32;100.00;92668.81;2051905;28;20476;-81
2023/04/20 01:19:23;;;;;;;12.57;6.82;;;;;;;2.29;100.00;92669.59;2056763;28;20121;-82
2023/04/20 01:20:24;;;;;;;10.07;6.88;;;;;;;2.31;100.00;92661.28;2040599;28;20177;-82
2023/04/20 01:21:26;;;;;;;10.73;6.90;;;;;;;2.35;100.00;92662.06;2048917;28;20093;-82
2023/04/20 01:22:27;;;;;;;7.65;6.95;;;;;;;2.35;100.00;92659.41;2064098;28;20487;-83
2023/04/20 01:23:27;;;;;;;9.30;6.38;;;;;;;2.31;100.00;92654.13;2056429;28;20022;-82
2023/04/20 01:24:28;;;;;;;8.93;6.85;;;;;;;2.33;100.00;92648.47;2064620;28;20026;-84
2023/04/20 01:25:30;;;;;;;8.35;6.57;;;;;;;2.27;100.00;92648.09;2056497;28;20023;-84
2023/04/20 01:26:30;;;;;;;11.25;7.43;;;;;;;2.26;100.00;92655.25;2064582;28;20065;-83
2023/04/20 01:27:32;;;;;;;7.05;6.35;;;;;;;2.23;100.00;92655.25;2052638;28;20077;-82
2023/04/20 01:28:32;;;;;;;7.50;6.63;;;;;;;2.28;100.00;92644.31;2056405;28;20023;-84
2023/04/20 01:29:34;;;;;;;7.47;6.47;;;;;;;2.32;100.00;92647.72;2062782;28;20064;-83
2023/04/20 01:30:36;;;;;;;8.52;6.80;;;;;;;2.38;100.00;92648.88;2053844;28;20026;-82
2023/04/20 01:31:37;;;;;;;8.02;6.93;;;;;;;2.44;100.00;92642.09;2048974;28;20031;-82
2023/04/20 01:32:39;;;;;;;8.07;6.75;;;;;;;2.41;100.00;92644.72;2056533;28;20027;-83
2023/04/20 01:33:40;;;;;;;8.55;7.20;;;;;;;2.39;100.00;92642.47;2056691;28;20529;-83
2023/04/20 01:34:44;;;;;;;7.88;7.07;;;;;;;2.41;100.00;92640.19;2048628;28;20039;-82
2023/04/20 01:35:45;;;;;;;8.13;6.90;;;;;;;2.36;100.00;92634.53;2054742;28;20061;-82
2023/04/20 01:36:46;;;;;;;8.60;7.10;;;;;;;2.36;100.00;92637.94;2048289;28;20646;-82
2023/04/20 01:37:47;;;;;;;8.65;7.20;;;;;;;2.35;100.00;92635.69;2048583;28;20070;-85
2023/04/20 01:38:48;;;;;;;7.28;6.43;;;;;;;2.39;100.00;92631.16;2064522;28;20033;-84
2023/04/20 01:39:49;;;;;;;8.07;6.80;;;;;;;2.39;100.00;92634.56;2056333;28;20494;-83
2023/04/20 01:40:51;;;;;;;7.53;6.82;;;;;;;2.44;100.00;92631.53;2048522;28;20046;-83
2023/04/20 01:41:52;;;;;;;9.52;6.43;;;;;;;2.40;100.00;92633.41;2064336;28;20022;-84
2023/04/20 01:42:53;;;;;;;7.35;6.55;;;;;;;2.39;100.00;92631.91;2064148;28;20065;-81
2023/04/20 01:43:54;;;;;;;7.60;6.78;;;;;;;2.33;100.00;92632.66;2056449;28;20106;-83
2023/04/20 01:44:55;;;;;;;9.73;7.07;;;;;;;2.36;100.00;92626.63;2048361;28;20027;-84
2023/04/20 01:45:58;;;;;;;6.60;6.00;;;;;;;2.33;100.00;92617.59;2052393;28;20507;-83
2023/04/20 01:46:59;;;;;;;7.65;6.30;;;;;;;2.37;100.00;92628.13;2048811;28;20023;-82
2023/04/20 01:48:01;;;;;;;8.07;6.95;;;;;;;2.38;100.00;92614.59;2041761;28;20504;-81
2023/04/20 01:49:03;;;;;;;8.57;6.72;;;;;;;2.42;100.00;92617.22;2040807;28;20483;-83
2023/04/20 01:50:04;;;;;;;8.05;6.35;;;;;;;2.44;100.00;92615.72;2061273;28;20022;-84
2023/04/20 01:51:05;;;;;;;8.18;6.28;;;;;;;2.32;100.00;92620.59;2056418;28;20038;-82
2023/04/20 01:52:08;;;;;;;6.85;6.15;;;;;;;2.22;100.00;92619.47;2048516;28;20034;-82
2023/04/20 01:53:09;;;;;;;10.05;7.00;;;;;;;2.24;100.00;92620.59;2054078;28;20027;-84
2023/04/20 01:54:10;;;;;;;8.55;6.75;;;;;;;2.21;100.00;92623.22;2048109;28;20050;-83
2023/04/20 01:55:12;;;;;;;6.95;6.25;;;;;;;2.12;100.00;92613.03;2049936;28;20023;-85
2023/04/20 01:56:13;;;;;;;7.15;6.45;;;;;;;2.10;100.00;92620.56;2055904;28;20033;-82
2023/04/20 01:57:14;;;;;;;7.32;6.15;;;;;;;2.01;100.00;92613.00;2048389;28;20073;-83
2023/04/20 01:58:15;;;;;;;10.18;7.10;;;;;;;2.04;100.00;92616.03;2040596;28;20038;-83
2023/04/20 01:59:16;;;;;;;8.25;6.90;;;;;;;2.07;100.00;92618.69;2048615;28;20055;-81
2023/04/20 02:00:17;;;;;;;7.28;6.57;;;;;;;2.04;100.00;92616.03;2053091;28;20023;-81
2023/04/20 02:01:18;;;;;;;8.40;6.65;;;;;;;2.08;100.00;92622.06;2053280;28;20042;-81
2023/04/20 02:02:20;;;;;;;7.60;6.80;;;;;;;2.12;100.00;92612.28;2050987;28;20492;-84
2023/04/20 02:03:21;;;;;;;8.50;7.15;;;;;;;2.09;100.00;92615.66;2047930;28;20054;-83
2023/04/20 02:04:23;;;;;;;8.98;6.88;;;;;;;2.03;100.00;92619.81;2048532;29;20102;-83
2023/04/20 02:05:25;;;;;;;9.70;6.75;;;;;;;2.13;100.00;92609.28;2044297;28;20034;-82
2023/04/20 02:06:27;;;;;;;6.82;6.18;;;;;;;2.14;100.00;92613.41;2056616;28;20029;-82
2023/04/20 02:07:28;;;;;;;8.63;6.80;;;;;;;2.12;100.00;92607.03;2064217;28;20054;-82
2023/04/20 02:08:29;;;;;;;7.97;6.68;;;;;;;2.16;100.00;92613.06;2059787;28;20412;-82
2023/04/20 02:09:31;;;;;;;8.52;7.35;;;;;;;2.22;100.00;92606.28;2048788;28;20050;-83
2023/04/20 02:10:33;;;;;;;7.97;7.18;;;;;;;2.10;100.00;92610.03;2056179;28;20157;-83
2023/04/20 02:11:35;;;;;;;9.20;7.60;;;;;;;2.11;100.00;92610.78;2056727;28;20030;-82
2023/04/20 02:12:36;;;;;;;9.70;7.32;;;;;;;2.09;100.00;92603.25;2064335;28;20395;-83
2023/04/20 02:13:39;;;;;;;8.60;7.65;;;;;;;2.06;100.00;92603.97;2056271;28;20030;-81
2023/04/20 02:14:42;;;;;;;8.40;6.85;;;;;;;2.05;100.00;92599.09;2056278;28;20029;-82
2023/04/20 02:15:44;;;;;;;9.50;6.82;;;;;;;2.07;100.00;92599.50;2056679;28;20155;-82
2023/04/20 02:16:45;;;;;;;8.52;7.55;;;;;;;2.01;100.00;92605.09;2064237;28;20710;-84
2023/04/20 02:17:51;;;;;;;8.05;7.15;;;;;;;2.00;100.00;92606.25;2064168;28;20094;-84
2023/04/20 02:18:53;;;;;;;7.90;6.80;;;;;;;1.99;100.00;92601.34;2049171;28;20113;-84
2023/04/20 02:19:54;;;;;;;11.32;7.05;;;;;;;2.03;100.00;92599.47;2048298;28;20055;-82
2023/04/20 02:20:55;;;;;;;7.95;6.93;;;;;;;2.08;100.00;92601.00;2048077;28;20027;-83
2023/04/20 02:21:56;;;;;;;7.63;6.72;;;;;;;1.98;100.00;92608.50;2050047;28;20027;-83
2023/04/20 02:22:57;;;;;;;9.88;7.38;;;;;;;2.00;100.00;92603.59;2056289;28;20054;-83
2023/04/20 02:23:58;;;;;;;7.60;6.72;;;;;;;2.01;100.00;92610.38;2056021;28;20482;-82
2023/04/20 02:25:00;;;;;;;8.25;6.78;;;;;;;2.03;100.00;92604.75;2048307;28;20027;-83
2023/04/20 02:26:02;;;;;;;9.73;7.47;;;;;;;2.01;100.00;92601.72;2064550;28;20463;-84
2023/04/20 02:27:03;;;;;;;8.63;7.10;;;;;;;1.98;100.00;92595.34;2063819;28;20026;-84
2023/04/20 02:28:04;;;;;;;9.38;6.85;;;;;;;1.93;100.00;92600.19;2048164;28;20460;-83
2023/04/20 02:29:07;;;;;;;8.52;6.88;;;;;;;1.96;100.00;92599.47;2056208;28;20062;-82
2023/04/20 02:30:09;;;;;;;9.27;6.95;;;;;;;1.99;100.00;92598.72;2048407;28;20030;-82
2023/04/20 02:31:10;;;;;;;9.48;7.20;;;;;;;1.96;100.00;92596.81;2048289;28;20027;-82
2023/04/20 02:32:12;;;;;;;10.85;7.05;;;;;;;1.87;100.00;92594.53;2055657;28;20946;-83
2023/04/20 02:33:13;;;;;;;8.73;7.78;;;;;;;1.95;100.00;92596.06;2048050;28;20051;-83
2023/04/20 02:34:14;;;;;;;8.18;6.43;;;;;;;1.98;100.00;92589.31;2050329;28;20031;-83
2023/04/20 02:35:15;;;;;;;8.30;7.28;;;;;;;1.97;100.00;92588.53;2048305;28;20519;-84
2023/04/20 02:36:16;;;;;;;7.57;6.82;;;;;;;1.86;100.00;92593.03;2056234;28;20712;-83
2023/04/20 02:37:18;;;;;;;7.70;6.90;;;;;;;1.85;100.00;92585.53;2062636;28;20074;-82
2023/04/20 02:38:19;;;;;;;7.85;7.05;;;;;;;1.80;100.00;92585.84;2055986;28;20496;-83
2023/04/20 02:39:23;;;;;;;7.68;6.85;;;;;;;1.86;100.00;92584.38;2056283;28;20586;-84
2023/04/20 02:40:25;;;;;;;8.13;7.03;;;;;;;1.79;100.00;92590.38;2053043;28;20682;-83
2023/04/20 02:41:29;;;;;;;8.20;6.97;;;;;;;1.77;100.00;92588.13;2042994;28;20035;-82
2023/04/20 02:42:31;;;;;;;8.60;6.97;;;;;;;1.75;100.00;92585.09;2048844;28;20033;-84
2023/04/20 02:43:34;;;;;;;7.65;6.85;;;;;;;1.73;100.00;92582.09;2055738;28;20029;-82
2023/04/20 02:44:36;;;;;;;7.40;6.70;;;;;;;1.68;100.00;92579.81;2056824;28;20093;-82
2023/04/20 02:45:38;;;;;;;9.05;7.03;;;;;;;1.68;100.00;92579.06;2049298;28;20464;-83
2023/04/20 02:46:39;;;;;;;7.07;6.32;;;;;;;1.63;100.00;92576.81;2048294;28;20027;-84
2023/04/20 02:47:40;;;;;;;6.72;6.05;;;;;;;1.50;100.00;92577.13;2056232;28;20459;-83
2023/04/20 02:48:42;;;;;;;8.48;7.28;;;;;;;1.48;100.00;92570.72;2056018;28;20693;-82
2023/04/20 02:49:43;;;;;;;8.55;6.80;;;;;;;1.54;100.00;92568.47;2047984;28;20476;-82
2023/04/20 02:50:44;;;;;;;9.93;7.20;;;;;;;1.54;100.00;92569.25;2050030;28;20030;-83
2023/04/20 02:51:45;;;;;;;8.38;7.03;;;;;;;1.57;100.00;92567.75;2048182;28;20034;-83
2023/04/20 02:52:46;;;;;;;9.93;6.97;;;;;;;1.52;100.00;92566.22;2048190;28;20507;-82
2023/04/20 02:53:47;;;;;;;8.00;7.20;;;;;;;1.45;100.00;92563.59;2048043;28;20496;-83
2023/04/20 02:54:48;;;;;;;8.82;6.80;;;;;;;1.50;100.00;92573.75;2046867;28;20042;-82
2023/04/20 02:55:49;;;;;;;9.00;6.18;;;;;;;1.56;100.00;92560.97;2047816;28;20099;-81
2023/04/20 02:56:50;;;;;;;8.25;6.43;;;;;;;1.49;100.00;92570.38;2043000;28;20078;-84
2023/04/20 02:57:52;;;;;;;8.68;7.40;;;;;;;1.49;100.00;92565.09;2047960;28;20138;-84
2023/04/20 02:58:54;;;;;;;8.00;6.70;;;;;;;1.43;100.00;92569.19;2043023;28;20082;-83
2023/04/20 02:59:55;;;;;;;9.05;6.82;;;;;;;1.43;100.00;92571.84;2063991;28;20049;-82
2023/04/20 03:01:01;;;;;;;8.05;6.65;;;;;;;1.48;100.00;92566.22;2056124;28;20034;-84
2023/04/20 03:02:02;;;;;;;9.88;6.53;;;;;;;1.50;100.00;92571.88;2040861;28;20111;-82
2023/04/20 03:03:18;;;;;;;9.15;7.10;;;;;;;1.48;100.00;92557.56;2039966;28;20421;-84
2023/04/20 03:04:20;;;;;;;6.82;6.15;;;;;;;1.55;100.00;92544.41;2052153;28;20038;-82
2023/04/20 03:05:23;;;;;;;7.50;6.65;;;;;;;1.51;100.00;92551.56;2059067;28;20582;-84
2023/04/20 03:06:25;;;;;;;8.88;6.35;;;;;;;1.55;100.00;92549.69;2063799;28;20030;-84
2023/04/20 03:07:27;;;;;;;7.47;6.43;;;;;;;1.51;100.00;92548.91;2040365;28;20477;-82
2023/04/20 03:08:28;;;;;;;10.45;7.07;;;;;;;1.55;100.00;92546.31;2048411;28;20023;-84
2023/04/20 03:09:29;;;;;;;8.55;7.07;;;;;;;1.47;100.00;92554.16;2063805;28;20053;-82
2023/04/20 03:10:32;;;;;;;9.77;7.20;;;;;;;1.39;100.00;92550.00;2055794;28;20428;-82
2023/04/20 03:11:34;;;;;;;10.50;7.65;;;;;;;1.34;100.00;92553.00;2045354;28;20484;-84
2023/04/20 03:12:36;;;;;;;8.55;6.95;;;;;;;1.37;100.00;92548.88;2048400;28;20027;-84
2023/04/20 03:13:37;;;;;;;9.55;7.75;;;;;;;1.33;100.00;92548.13;2056277;28;20503;-84
2023/04/20 03:14:41;;;;;;;9.88;7.47;;;;;;;1.31;100.00;92542.44;2064767;28;20031;-82
2023/04/20 03:15:42;;;;;;;8.52;6.88;;;;;;;1.25;100.00;92542.81;2051498;28;20023;-81
2023/04/20 03:16:44;;;;;;;9.43;7.13;;;;;;;1.34;100.00;92546.97;2049449;28;20110;-81
2023/04/20 03:17:45;;;;;;;8.18;6.97;;;;;;;1.37;100.00;92541.72;2049615;28;20019;-84
2023/04/20 03:18:47;;;;;;;8.63;6.65;;;;;;;1.35;100.00;92535.31;2049670;28;20073;-83
2023/04/20 03:19:48;;;;;;;7.72;6.63;;;;;;;1.35;100.00;92543.97;2045053;28;20070;-82
2023/04/20 03:20:51;;;;;;;8.07;6.80;;;;;;;1.36;100.00;92539.44;2057375;28;20023;-83
2023/04/20 03:21:52;;;;;;;8.52;6.55;;;;;;;1.34;100.00;92549.63;2064846;28;20692;-83
2023/04/20 03:22:55;;;;;;;8.70;6.55;;;;;;;1.33;100.00;92548.88;2057797;28;20045;-83
2023/04/20 03:23:58;;;;;;;9.70;6.28;;;;;;;1.38;100.00;92539.84;2057833;28;20631;-83
2023/04/20 03:24:59;;;;;;;9.70;6.95;;;;;;;1.36;100.00;92534.97;2049819;28;20035;-84
2023/04/20 03:26:01;;;;;;;10.43;7.60;;;;;;;1.36;100.00;92534.97;2057525;28;20439;-83
2023/04/20 03:27:02;;;;;;;7.25;6.55;;;;;;;1.34;100.00;92534.56;2057376;28;20086;-83
2023/04/20 03:28:04;;;;;;;9.52;6.43;;;;;;;1.32;100.00;92530.78;2049508;28;20034;-82
2023/04/20 03:29:05;;;;;;;7.10;6.40;;;;;;;1.32;100.00;92531.56;2049410;28;20093;-83
2023/04/20 03:30:07;;;;;;;7.15;6.45;;;;;;;1.35;100.00;92530.06;2057430;28;20025;-83
2023/04/20 03:31:08;;;;;;;9.55;6.78;;;;;;;1.33;100.00;92527.06;2057408;28;20026;-82
2023/04/20 03:32:09;;;;;;;8.85;7.10;;;;;;;1.23;100.00;92526.66;2041533;28;20030;-82
2023/04/20 03:33:10;;;;;;;7.30;6.60;;;;;;;1.14;100.00;92528.09;2049610;28;20400;-83
2023/04/20 03:34:11;;;;;;;8.10;6.20;;;;;;;1.14;100.00;92536.78;2049190;28;20023;-82
2023/04/20 03:35:12;;;;;;;8.93;6.50;;;;;;;1.14;100.00;92543.88;2049511;28;20027;-82
2023/04/20 03:36:13;;;;;;;8.40;6.50;;;;;;;1.06;100.00;92529.97;2064943;28;20023;-82
2023/04/20 03:37:15;;;;;;;7.55;6.75;;;;;;;1.09;100.00;92531.09;2057403;28;20691;-82
2023/04/20 03:38:15;;;;;;;10.13;6.50;;;;;;;1.11;100.00;92534.88;2057553;28;20031;-82
2023/04/20 03:39:16;;;;;;;7.97;6.55;;;;;;;1.12;100.00;92528.47;2049523;28;20024;-82
2023/04/20 03:40:17;;;;;;;7.38;6.68;;;;;;;1.11;100.00;92523.59;2064039;28;20108;-83
2023/04/20 03:41:19;;;;;;;7.07;6.38;;;;;;;1.12;100.00;92528.47;2057266;28;20062;-83
2023/04/20 03:42:22;;;;;;;7.75;6.95;;;;;;;1.15;100.00;92530.38;2057326;28;20046;-83
2023/04/20 03:43:24;;;;;;;6.65;5.95;;;;;;;1.08;100.00;92529.59;2057461;28;20037;-82
2023/04/20 03:44:25;;;;;;;7.97;6.45;;;;;;;1.05;100.00;92527.69;2056742;28;20037;-83
2023/04/20 03:45:26;;;;;;;7.28;6.50;;;;;;;0.96;100.00;92534.03;2051604;28;20059;-83
2023/04/20 03:46:27;;;;;;;9.50;6.55;;;;;;;0.96;100.00;92530.66;2048111;29;20023;-82
2023/04/20 03:47:28;;;;;;;10.32;7.05;;;;;;;0.97;100.00;92530.31;2065636;28;20525;-83
2023/04/20 03:48:29;;;;;;;8.45;7.22;;;;;;;0.98;100.00;92531.06;2048957;28;20051;-84
2023/04/20 03:49:30;;;;;;;8.07;6.97;;;;;;;0.96;100.00;92530.66;2050635;28;20031;-84
2023/04/20 03:50:31;;;;;;;14.18;7.18;;;;;;;0.84;100.00;92531.00;2057426;28;20026;-82
2023/04/20 03:51:32;;;;;;;9.68;7.07;;;;;;;0.84;100.00;92523.84;2057449;28;20027;-82
2023/04/20 03:52:33;;;;;;;8.50;6.80;;;;;;;0.79;100.00;92523.44;2049368;29;20019;-82
2023/04/20 03:53:34;;;;;;;9.00;7.20;;;;;;;0.82;100.00;92517.44;2048721;28;20078;-83
2023/04/20 03:54:35;;;;;;;7.75;6.85;;;;;;;0.86;100.00;92520.84;2049069;28;20038;-82
2023/04/20 03:55:37;;;;;;;9.63;7.07;;;;;;;0.92;100.00;92522.75;2049518;28;20031;-85
2023/04/20 03:56:38;;;;;;;10.40;7.40;;;;;;;0.97;100.00;92527.66;2058868;28;20036;-83
2023/04/20 03:57:39;;;;;;;10.63;7.80;;;;;;;0.99;100.00;92520.16;2057397;28;20038;-82
2023/04/20 03:58:40;;;;;;;8.55;6.97;;;;;;;1.01;100.00;92517.16;2056926;28;20050;-82
2023/04/20 03:59:43;;;;;;;9.07;6.70;;;;;;;1.02;100.00;92513.41;2057272;28;20081;-82
2023/04/20 04:00:44;;;;;;;7.55;6.43;;;;;;;1.07;100.00;92514.94;2057457;28;20114;-82
2023/04/20 04:01:45;;;;;;;9.05;7.25;;;;;;;1.09;100.00;92513.41;2065128;28;20031;-82
2023/04/20 04:02:46;;;;;;;8.45;7.18;;;;;;;1.11;100.00;92521.72;2065132;28;20034;-84
2023/04/20 04:03:47;;;;;;;8.65;6.88;;;;;;;1.12;100.00;92517.94;2057134;28;20039;-84
2023/04/20 04:04:48;;;;;;;9.57;7.82;;;;;;;1.08;100.00;92514.53;2054060;28;20373;-81
2023/04/20 04:05:49;;;;;;;11.70;7.38;;;;;;;1.01;100.00;92519.78;2048233;28;20035;-83
2023/04/20 04:06:50;;;;;;;11.32;6.80;;;;;;;1.00;100.00;92520.91;2049084;28;20537;-82
2023/04/20 04:07:51;;;;;;;10.80;7.25;;;;;;;1.06;100.00;92523.94;2049240;28;20027;-82
2023/04/20 04:08:52;;;;;;;8.60;6.97;;;;;;;1.07;100.00;92522.81;2057364;28;20038;-83
2023/04/20 04:09:54;;;;;;;9.23;7.22;;;;;;;0.99;100.00;92525.41;2053040;28;20110;-83
2023/04/20 04:10:55;;;;;;;8.73;7.32;;;;;;;1.00;100.00;92529.53;2057359;28;20042;-83
2023/04/20 04:11:56;;;;;;;7.20;6.20;;;;;;;1.04;100.00;92521.66;2057094;28;20113;-82
2023/04/20 04:12:57;;;;;;;8.52;7.32;;;;;;;0.99;100.00;92525.41;2048989;28;20416;-81
2023/04/20 04:13:59;;;;;;;8.60;7.35;;;;;;;0.94;100.00;92523.13;2041156;28;20036;-83
2023/04/20 04:15:00;;;;;;;8.57;6.88;;;;;;;1.06;100.00;92523.94;2049740;28;20032;-82
2023/04/20 04:16:01;;;;;;;10.57;7.63;;;;;;;1.03;100.00;92529.94;2049196;28;20027;-82
2023/04/20 04:17:02;;;;;;;10.15;7.53;;;;;;;0.98;100.00;92523.91;2048892;28;20040;-83
2023/04/20 04:18:03;;;;;;;12.65;7.30;;;;;;;0.94;100.00;92528.41;2038497;29;20890;-81
2023/04/20 04:19:04;;;;;;;11.38;7.22;;;;;;;0.93;100.00;92526.91;2046039;28;20135;-82
2023/04/20 04:20:09;;;;;;;10.10;7.90;;;;;;;1.00;100.00;92526.91;2053188;28;20047;-83
2023/04/20 04:21:12;;;;;;;11.05;7.85;;;;;;;0.94;100.00;92520.50;2061544;28;20832;-82
2023/04/20 04:22:13;;;;;;;9.27;7.38;;;;;;;1.03;100.00;92524.69;2042491;28;20031;-82
2023/04/20 04:23:15;;;;;;;10.30;7.80;;;;;;;1.07;100.00;92526.19;2053180;28;20240;-82
2023/04/20 04:24:16;;;;;;;10.50;7.57;;;;;;;1.10;100.00;92522.84;2054689;28;20054;-83
2023/04/20 04:25:17;;;;;;;12.70;8.07;;;;;;;1.06;100.00;92529.22;2048037;28;20677;-82
2023/04/20 04:26:20;;;;;;;9.95;7.40;;;;;;;1.01;100.00;92519.78;2046703;28;20058;-83
2023/04/20 04:27:22;;;;;;;9.48;7.38;;;;;;;0.93;100.00;92526.16;2048320;28;20035;-83
2023/04/20 04:28:24;;;;;;;8.57;7.65;;;;;;;0.93;100.00;92523.50;2048504;28;20043;-82
2023/04/20 04:29:25;;;;;;;10.52;7.88;;;;;;;1.03;100.00;92522.06;2048052;28;20038;-83
2023/04/20 04:30:26;;;;;;;8.40;7.50;;;;;;;1.03;100.00;92516.78;2047379;28;20038;-83
2023/04/20 04:31:27;;;;;;;8.25;7.25;;;;;;;1.05;100.00;92523.16;2047653;28;20030;-83
2023/04/20 04:32:28;;;;;;;11.77;7.40;;;;;;;1.05;100.00;92522.41;2043390;28;20031;-83
2023/04/20 04:33:29;;;;;;;13.05;8.45;;;;;;;1.08;100.00;92521.69;2042379;28;20035;-82
2023/04/20 04:34:32;;;;;;;11.05;8.10;;;;;;;1.07;100.00;92522.81;2038603;28;20024;-82
2023/04/20 04:35:34;;;;;;;9.50;8.23;;;;;;;1.13;100.00;92518.69;2050742;28;20026;-82
2023/04/20 04:36:36;;;;;;;10.20;7.93;;;;;;;1.16;100.00;92523.22;2057257;28;20074;-83
2023/04/20 04:37:37;;;;;;;9.95;7.50;;;;;;;1.20;100.00;92527.38;2049644;28;20528;-83
2023/04/20 04:38:39;;;;;;;12.32;8.00;;;;;;;1.17;100.00;92532.63;2052707;28;20034;-84
2023/04/20 04:39:41;;;;;;;9.57;7.60;;;;;;;1.21;100.00;92525.50;2055392;28;20026;-82
2023/04/20 04:40:44;;;;;;;11.35;8.30;;;;;;;1.17;100.00;92540.53;2047808;28;20122;-82
2023/04/20 04:41:46;;;;;;;8.88;7.50;;;;;;;1.13;100.00;92529.97;2044663;28;20416;-82
2023/04/20 04:42:47;;;;;;;7.72;6.80;;;;;;;1.20;100.00;92532.66;2054722;28;20030;-81
2023/04/20 04:43:48;;;;;;;8.30;7.18;;;;;;;1.17;100.00;92533.38;2047169;28;20680;-82
2023/04/20 04:44:52;;;;;;;12.10;8.15;;;;;;;1.22;100.00;92537.53;2046969;28;20031;-82
2023/04/20 04:45:54;;;;;;;9.98;7.82;;;;;;;1.16;100.00;92536.38;2042034;28;20030;-84
2023/04/20 04:46:56;;;;;;;11.30;8.32;;;;;;;1.00;100.00;92526.91;2049903;28;20117;-83
2023/04/20 04:47:57;;;;;;;10.32;8.40;;;;;;;0.96;100.00;92535.91;2050005;28;20114;-85
2023/04/20 04:48:59;;;;;;;11.02;7.85;;;;;;;0.98;100.00;92529.16;2042418;28;20030;-85